KFSE

Fosston Municipal Airport

Fosston, Minnesota, USA
METAR KFSE 151335Z AUTO 00000KT 10SM OVC100 M16/M17 A2987 RMK AO2
Observed Flight Rules
Dec-15 @ 13:35 UTC (21 minutes ago) Visual Flight Rules
Wind Visibility Clouds
Calm 10 miles
  • Overcast at 10,000' AGL
Temperatures Readings
Current -16°C / 3°F
Dewpoint -17°C / 1°F
Humidity 92%
Altimeter 29.87" Hg
Pressure 1012 hPa
Elevation 389
METAR KFSE 151335Z AUTO 00000KT 10SM OVC100 M16/M17 A2987 RMK AO2
Observed Flight Rules
Dec-15 @ 13:35 UTC
(21 minutes ago)
VFR
Wind Visibility
Calm 10 miles
Clouds
  • Overcast at 10,000' AGL
Temperature Dewpoint
-16°C / 3°F -17°C / 1°F
Humidity Altimeter Pressure
92% 29.87" Hg 1012 hPa